Askholmen — V7RU4 — position and weather

sailwx.info

Track history (hours):
 
Tides and Currents Weather Stations Pressure Air Temp Water Temp Dewpoint Dewpoint Depression Visibility Wind Speed Wind Dir Waves Ship Positions

Askholmen

Last reported at 2017-Oct-19 14:07 UTC. Time now 2017-Dec-15 06:46 UTC.
Position N 31°16' E 032°19'.
Warning: this ship's position is 56 days out of date.

Length 144 m; draft 9.1 m.

Type: Tanker. MMSI: 538005552.

Date/timePositionNaut miles runAvg speedWind from/ knotsBaromVisibWave heightAir tempDewpointWater temp
2017-Oct-19 14:07N 31°16' E 032°19'0 0.0
2017-Oct-19 13:57N 31°16' E 032°19'0 0.5
2017-Oct-19 13:19N 31°16' E 032°19'3 9.1
2017-Oct-19 13:00N 31°18' E 032°21'4 3.7
2017-Oct-19 11:59N 31°22' E 032°21'1611.4
2017-Oct-19 10:34N 31°35' E 032°09'113.8
2017-Oct-19 10:30N 31°36' E 032°08'713.8
2017-Oct-19 10:00N 31°40' E 032°03'8114.1
2017-Oct-19 04:15N 32°39' E 030°57'414.1
2017-Oct-19 03:59N 32°42' E 030°54'714.7
2017-Oct-19 03:31N 32°47' E 030°48'1713.9
2017-Oct-19 02:16N 32°60' E 030°35'413.9
2017-Oct-19 02:00N 33°03' E 030°32'714.0
2017-Oct-19 01:30N 33°08' E 030°26'34414.2
2017-Oct-18 01:16N 37°29' E 025°51'1 3.6
2017-Oct-18 01:00N 37°30' E 025°51'4 7.9
2017-Oct-18 00:30N 37°34' E 025°49'713.8
2017-Oct-18 00:00N 37°40' E 025°46'713.9
2017-Oct-17 23:30N 37°46' E 025°43'11313.3
2017-Oct-17 15:00N 39°40' E 025°42'813.9
2017-Oct-17 14:25N 39°47' E 025°45'714.9
2017-Oct-17 13:59N 39°53' E 025°50'1214.2
2017-Oct-17 13:07N 40°01' E 026°02'414.6
2017-Oct-17 12:50N 40°01' E 026°07'13612.6
2017-Oct-17 02:04N 40°55' E 028°51'112.7
2017-Oct-17 01:58N 40°56' E 028°53'3 7.1
2017-Oct-17 01:30N 40°57' E 028°57'41711.5
2017-Oct-15 13:16N 45°04' E 036°37'1 3.2
2017-Oct-15 12:50N 45°05' E 036°38'0 0.0
2017-Oct-15 12:23N 45°05' E 036°38'0 0.0
2017-Oct-15 11:47N 45°05' E 036°38'0 0.0
2017-Oct-15 11:26N 45°05' E 036°38'0 0.0
2017-Oct-15 10:56N 45°05' E 036°38'0 0.0
2017-Oct-15 10:20N 45°05' E 036°38'0 0.0
2017-Oct-15 09:59N 45°05' E 036°38'0 0.0
2017-Oct-15 09:26N 45°05' E 036°38'0 0.0
2017-Oct-15 08:59N 45°05' E 036°38'0 0.0
2017-Oct-15 08:29N 45°05' E 036°38'0 0.0
2017-Oct-15 07:44N 45°05' E 036°38'0 0.0
2017-Oct-15 07:17N 45°05' E 036°38'0 0.0
2017-Oct-15 06:50N 45°05' E 036°38'0 0.0
2017-Oct-15 06:23N 45°05' E 036°38'0 0.0
2017-Oct-15 05:56N 45°05' E 036°38'0 0.0
2017-Oct-15 04:35N 45°05' E 036°38'0 0.0
2017-Oct-15 04:29N 45°05' E 036°38'0 0.0
2017-Oct-15 01:14N 45°05' E 036°38'0 0.0
2017-Oct-15 00:59N 45°05' E 036°38'1 1.4
2017-Oct-15 00:31N 45°05' E 036°37'2 0.1
2017-Oct-14 07:44N 45°07' E 036°38'2 4.8
2017-Oct-14 07:24N 45°05' E 036°37'1 2.5
2017-Oct-14 06:55N 45°05' E 036°39'0 0.0
2017-Oct-14 06:16N 45°05' E 036°39'0 0.0
2017-Oct-14 05:46N 45°05' E 036°39'0 0.0
2017-Oct-14 05:22N 45°05' E 036°39'0 0.0
2017-Oct-14 04:52N 45°05' E 036°39'0 0.0
2017-Oct-14 04:28N 45°05' E 036°39'0 0.0
2017-Oct-14 03:13N 45°05' E 036°39'0 0.1
2017-Oct-14 02:58N 45°05' E 036°39'0 0.0
2017-Oct-14 02:25N 45°05' E 036°39'0 0.0
2017-Oct-13 22:03N 45°05' E 036°39'0 1.9
2017-Oct-13 22:00N 45°05' E 036°39'2 3.2
2017-Oct-13 21:27N 45°07' E 036°37'  
Track history (hours):
 
Tides and Currents Weather Stations Pressure Air Temp Water Temp Dewpoint Dewpoint Depression Visibility Wind Speed Wind Dir Waves Ship Positions

Askholmen

Last reported at 2017-Oct-19 14:07 UTC. Time now 2017-Dec-15 06:46 UTC.
Position N 31°16' E 032°19'.
Warning: this ship's position is 56 days out of date.

Length 144 m; draft 9.1 m.

Type: Tanker. MMSI: 538005552.

Date/timePositionNaut miles runAvg speedWind from/ knotsBaromVisibWave heightAir tempDewpointWater temp
2017-Oct-19 14:07N 31°16' E 032°19'0 0.0
2017-Oct-19 13:57N 31°16' E 032°19'0 0.5
2017-Oct-19 13:19N 31°16' E 032°19'3 9.1
2017-Oct-19 13:00N 31°18' E 032°21'4 3.7
2017-Oct-19 11:59N 31°22' E 032°21'1611.4
2017-Oct-19 10:34N 31°35' E 032°09'113.8
2017-Oct-19 10:30N 31°36' E 032°08'713.8
2017-Oct-19 10:00N 31°40' E 032°03'8114.1
2017-Oct-19 04:15N 32°39' E 030°57'414.1
2017-Oct-19 03:59N 32°42' E 030°54'714.7
2017-Oct-19 03:31N 32°47' E 030°48'1713.9
2017-Oct-19 02:16N 32°60' E 030°35'413.9
2017-Oct-19 02:00N 33°03' E 030°32'714.0
2017-Oct-19 01:30N 33°08' E 030°26'34414.2
2017-Oct-18 01:16N 37°29' E 025°51'1 3.6
2017-Oct-18 01:00N 37°30' E 025°51'4 7.9
2017-Oct-18 00:30N 37°34' E 025°49'713.8
2017-Oct-18 00:00N 37°40' E 025°46'713.9
2017-Oct-17 23:30N 37°46' E 025°43'11313.3
2017-Oct-17 15:00N 39°40' E 025°42'813.9
2017-Oct-17 14:25N 39°47' E 025°45'714.9
2017-Oct-17 13:59N 39°53' E 025°50'1214.2
2017-Oct-17 13:07N 40°01' E 026°02'414.6
2017-Oct-17 12:50N 40°01' E 026°07'13612.6
2017-Oct-17 02:04N 40°55' E 028°51'112.7
2017-Oct-17 01:58N 40°56' E 028°53'3 7.1
2017-Oct-17 01:30N 40°57' E 028°57'41711.5
2017-Oct-15 13:16N 45°04' E 036°37'1 3.2
2017-Oct-15 12:50N 45°05' E 036°38'0 0.0
2017-Oct-15 12:23N 45°05' E 036°38'0 0.0
2017-Oct-15 11:47N 45°05' E 036°38'0 0.0
2017-Oct-15 11:26N 45°05' E 036°38'0 0.0
2017-Oct-15 10:56N 45°05' E 036°38'0 0.0
2017-Oct-15 10:20N 45°05' E 036°38'0 0.0
2017-Oct-15 09:59N 45°05' E 036°38'0 0.0
2017-Oct-15 09:26N 45°05' E 036°38'0 0.0
2017-Oct-15 08:59N 45°05' E 036°38'0 0.0
2017-Oct-15 08:29N 45°05' E 036°38'0 0.0
2017-Oct-15 07:44N 45°05' E 036°38'0 0.0
2017-Oct-15 07:17N 45°05' E 036°38'0 0.0
2017-Oct-15 06:50N 45°05' E 036°38'0 0.0
2017-Oct-15 06:23N 45°05' E 036°38'0 0.0
2017-Oct-15 05:56N 45°05' E 036°38'0 0.0
2017-Oct-15 04:35N 45°05' E 036°38'0 0.0
2017-Oct-15 04:29N 45°05' E 036°38'0 0.0
2017-Oct-15 01:14N 45°05' E 036°38'0 0.0
2017-Oct-15 00:59N 45°05' E 036°38'1 1.4
2017-Oct-15 00:31N 45°05' E 036°37'2 0.1
2017-Oct-14 07:44N 45°07' E 036°38'2 4.8
2017-Oct-14 07:24N 45°05' E 036°37'1 2.5
2017-Oct-14 06:55N 45°05' E 036°39'0 0.0
2017-Oct-14 06:16N 45°05' E 036°39'0 0.0
2017-Oct-14 05:46N 45°05' E 036°39'0 0.0
2017-Oct-14 05:22N 45°05' E 036°39'0 0.0
2017-Oct-14 04:52N 45°05' E 036°39'0 0.0
2017-Oct-14 04:28N 45°05' E 036°39'0 0.0
2017-Oct-14 03:13N 45°05' E 036°39'0 0.1
2017-Oct-14 02:58N 45°05' E 036°39'0 0.0
2017-Oct-14 02:25N 45°05' E 036°39'0 0.0
2017-Oct-13 22:03N 45°05' E 036°39'0 1.9
2017-Oct-13 22:00N 45°05' E 036°39'2 3.2
2017-Oct-13 21:27N 45°07' E 036°37'  

Dump ship's entire track history